createdAt,value
2023-04-17T03:55:57.152Z,13.15
2023-04-17T03:59:00.292Z,13.15
2023-04-17T04:02:03.129Z,13.18
2023-04-17T04:05:06.639Z,13.19
2023-04-17T04:08:09.324Z,13.31
2023-04-17T04:11:12.001Z,13.29
2023-04-17T04:14:14.772Z,13.19
2023-04-17T04:17:18.655Z,13.19
2023-04-17T04:20:22.410Z,13.25
2023-04-17T04:23:27.886Z,13.26
2023-04-17T04:26:30.086Z,13.16
2023-04-17T04:29:33.880Z,13.21
2023-04-17T04:32:37.602Z,13.28
2023-04-17T04:35:41.792Z,13.37
2023-04-17T04:38:44.024Z,13.36
2023-04-17T04:41:50.540Z,13.37
2023-04-17T04:44:53.417Z,13.39
2023-04-17T04:47:56.725Z,13.42
2023-04-17T04:50:59.046Z,13.47
2023-04-17T04:54:02.218Z,13.37
2023-04-17T04:57:04.391Z,13.37
2023-04-17T05:00:08.788Z,13.44
2023-04-17T05:03:11.744Z,13.44
2023-04-17T05:06:33.070Z,13.41
2023-04-17T05:09:36.169Z,13.35
2023-04-17T05:12:39.080Z,13.33
2023-04-17T05:15:41.863Z,13.46
2023-04-17T05:18:47.802Z,13.45
2023-04-17T05:21:50.564Z,13.55
2023-04-17T05:24:53.261Z,13.62
2023-04-17T05:27:55.937Z,13.63
2023-04-17T05:30:58.976Z,13.65
2023-04-17T05:34:02.512Z,13.77
2023-04-17T05:37:04.920Z,13.76
2023-04-17T05:40:07.776Z,13.72
2023-04-17T05:43:11.513Z,13.77
2023-04-17T05:46:13.778Z,13.75
2023-04-17T05:49:18.181Z,13.80
2023-04-17T05:52:20.469Z,13.82
2023-04-17T05:55:23.724Z,13.89
2023-04-17T05:58:28.063Z,13.86
2023-04-17T06:01:31.153Z,13.89
2023-04-17T06:04:34.326Z,13.91
2023-04-17T06:07:38.434Z,13.95
2023-04-17T06:10:41.128Z,13.99
2023-04-17T06:13:43.194Z,13.99
2023-04-17T06:16:45.929Z,13.99
2023-04-17T06:19:51.633Z,14.04
2023-04-17T06:22:54.078Z,14.03
2023-04-17T06:25:58.219Z,14.01
2023-04-17T06:29:01.199Z,14.11
2023-04-17T06:32:04.825Z,14.17
2023-04-17T06:35:07.849Z,14.19
2023-04-17T06:38:12.013Z,14.17
2023-04-17T06:41:14.722Z,14.37
2023-04-17T06:44:17.191Z,14.44
2023-04-17T06:47:19.865Z,14.50
2023-04-17T06:50:22.197Z,14.51
2023-04-17T06:53:25.746Z,14.54
2023-04-17T06:56:27.894Z,14.64
2023-04-17T06:59:30.262Z,14.67
2023-04-17T07:02:32.703Z,14.69
2023-04-17T07:05:35.303Z,14.76
2023-04-17T07:08:37.500Z,14.87
2023-04-17T07:11:39.949Z,14.99
2023-04-17T07:14:42.277Z,15.03
2023-04-17T07:17:44.742Z,15.13
2023-04-17T07:20:47.340Z,15.14
2023-04-17T07:23:49.758Z,15.33
2023-04-17T07:26:51.942Z,15.52
2023-04-17T07:29:55.977Z,15.67
2023-04-17T07:32:58.216Z,15.61
2023-04-17T07:36:00.618Z,15.72
2023-04-17T07:39:04.561Z,15.69
2023-04-17T07:42:08.921Z,15.75
2023-04-17T07:45:11.550Z,15.63
2023-04-17T07:48:13.985Z,15.62
2023-04-17T07:51:16.974Z,15.92
2023-04-17T07:54:19.596Z,16.12
2023-04-17T07:57:22.115Z,16.28
2023-04-17T08:00:24.626Z,16.35
2023-04-17T08:03:27.237Z,16.42
2023-04-17T08:06:29.557Z,16.45
2023-04-17T08:09:35.696Z,16.48
2023-04-17T08:12:39.617Z,16.54
2023-04-17T08:15:42.028Z,16.46
2023-04-17T08:18:44.375Z,16.50
2023-04-17T08:21:50.708Z,16.60
2023-04-17T08:24:57.862Z,16.62
2023-04-17T08:28:00.370Z,16.74
2023-04-17T08:31:02.548Z,16.76
2023-04-17T08:34:13.810Z,16.80
2023-04-17T08:37:16.918Z,16.85
2023-04-17T08:40:23.190Z,16.82
2023-04-17T08:43:29.084Z,16.91
2023-04-17T08:46:32.194Z,17.00
2023-04-17T08:49:35.602Z,17.00
2023-04-17T08:52:45.315Z,17.15
2023-04-17T08:55:48.290Z,17.11
2023-04-17T08:58:50.660Z,17.20
2023-04-17T09:02:08.414Z,17.11
2023-04-17T09:05:19.606Z,17.07
2023-04-17T09:08:27.905Z,17.28
2023-04-17T09:11:30.632Z,17.37
2023-04-17T09:14:33.144Z,17.49
2023-04-17T09:17:37.721Z,17.66
2023-04-17T09:20:50.260Z,17.67
2023-04-17T09:23:55.421Z,17.64
2023-04-17T09:27:20.317Z,17.76
2023-04-17T09:30:26.868Z,17.56
2023-04-17T09:33:29.071Z,17.67
2023-04-17T09:36:34.021Z,17.78
2023-04-17T09:39:37.172Z,17.88
2023-04-17T09:42:54.449Z,17.95
2023-04-17T09:45:57.483Z,18.13
2023-04-17T09:49:09.438Z,18.19
2023-04-17T09:52:13.088Z,17.84
2023-04-17T09:55:16.846Z,17.54
2023-04-17T09:58:19.772Z,17.41
2023-04-17T10:01:22.469Z,17.48
2023-04-17T10:04:25.217Z,17.93
2023-04-17T10:07:27.899Z,18.28
2023-04-17T10:10:34.796Z,18.03
2023-04-17T10:13:38.750Z,18.13
2023-04-17T10:16:47.064Z,18.26
2023-04-17T10:19:49.699Z,18.46
2023-04-17T10:22:56.644Z,18.25
2023-04-17T10:26:29.737Z,18.32
2023-04-17T10:29:53.435Z,18.39
2023-04-17T10:33:19.840Z,18.35
2023-04-17T10:36:49.481Z,18.47
2023-04-17T10:40:02.175Z,18.42
2023-04-17T10:43:13.777Z,18.21
2023-04-17T10:46:16.226Z,18.15
2023-04-17T10:49:21.583Z,18.20
2023-04-17T10:52:33.315Z,18.34
2023-04-17T10:55:48.626Z,18.38
2023-04-17T10:59:05.436Z,18.45
2023-04-17T11:02:07.954Z,18.67
2023-04-17T11:05:11.063Z,18.62
2023-04-17T11:08:13.670Z,18.71
2023-04-17T11:11:23.521Z,18.86
2023-04-17T11:14:33.032Z,18.68
2023-04-17T11:17:39.136Z,18.72
2023-04-17T11:20:41.495Z,18.88
2023-04-17T11:23:52.243Z,18.73
2023-04-17T11:26:56.172Z,18.78
2023-04-17T11:29:58.546Z,18.72
2023-04-17T11:33:02.766Z,18.70
2023-04-17T11:36:08.836Z,18.78
2023-04-17T11:39:14.992Z,18.88
2023-04-17T11:42:27.068Z,19.22
2023-04-17T11:45:32.528Z,19.36
2023-04-17T11:48:35.408Z,19.48
2023-04-17T11:51:37.684Z,19.76
2023-04-17T11:54:41.491Z,20.26
2023-04-17T11:57:43.831Z,20.16
2023-04-17T12:01:04.291Z,19.77
2023-04-17T12:04:19.882Z,19.83
2023-04-17T12:07:26.216Z,19.90
2023-04-17T12:10:42.705Z,19.94
2023-04-17T12:13:45.308Z,20.54
2023-04-17T12:16:50.447Z,20.73
2023-04-17T12:19:53.580Z,20.68
2023-04-17T12:22:56.201Z,20.40
2023-04-17T12:25:58.347Z,19.95
2023-04-17T12:29:00.876Z,19.54
2023-04-17T12:32:03.129Z,19.41
2023-04-17T12:35:05.929Z,19.16
2023-04-17T12:38:09.507Z,19.04
2023-04-17T12:41:26.463Z,19.09
2023-04-17T12:44:28.592Z,18.95
2023-04-17T12:47:31.178Z,18.92
2023-04-17T12:50:36.183Z,19.14
2023-04-17T12:53:38.575Z,19.48
2023-04-17T12:56:40.785Z,19.65
2023-04-17T12:59:43.127Z,19.73
2023-04-17T13:02:45.358Z,19.72
2023-04-17T13:05:53.118Z,19.72
2023-04-17T13:08:55.278Z,19.91
2023-04-17T13:11:57.835Z,20.22
2023-04-17T13:15:00.241Z,20.27
2023-04-17T13:18:02.939Z,20.14
2023-04-17T13:21:05.422Z,19.82
2023-04-17T13:24:10.065Z,19.55
2023-04-17T13:27:12.314Z,19.19
2023-04-17T13:30:14.817Z,19.06
2023-04-17T13:33:17.381Z,18.80
2023-04-17T13:36:19.842Z,18.66
2023-04-17T13:39:21.931Z,18.47
2023-04-17T13:42:24.475Z,18.22
2023-04-17T13:45:26.626Z,18.00
2023-04-17T13:48:29.015Z,17.91
2023-04-17T13:51:33.955Z,17.80
2023-04-17T13:54:36.338Z,17.60
2023-04-17T13:57:38.571Z,17.23
2023-04-17T14:00:40.965Z,17.01
2023-04-17T14:03:45.966Z,16.88
2023-04-17T14:06:50.733Z,16.90
2023-04-17T14:09:53.206Z,16.83
2023-04-17T14:12:55.288Z,16.68
2023-04-17T14:15:57.790Z,16.75
2023-04-17T14:19:06.711Z,16.90
2023-04-17T14:22:16.189Z,16.85
2023-04-17T14:25:18.296Z,16.92
2023-04-17T14:28:21.239Z,17.18
2023-04-17T14:31:23.458Z,17.41
2023-04-17T14:34:25.809Z,17.53
2023-04-17T14:37:28.245Z,17.77
2023-04-17T14:40:31.173Z,17.83
2023-04-17T14:43:33.291Z,17.96
2023-04-17T14:46:35.966Z,18.01
2023-04-17T14:49:38.249Z,18.02
2023-04-17T14:52:40.631Z,18.15
2023-04-17T14:55:42.815Z,18.18
2023-04-17T14:58:45.327Z,18.03
2023-04-17T15:01:47.707Z,17.95
2023-04-17T15:04:51.458Z,18.04
2023-04-17T15:07:53.678Z,17.89
2023-04-17T15:10:56.103Z,17.90
2023-04-17T15:13:58.293Z,17.92
2023-04-17T15:17:02.495Z,17.92
2023-04-17T15:20:05.688Z,17.84
2023-04-17T15:23:08.073Z,17.77
2023-04-17T15:26:10.471Z,17.72
2023-04-17T15:29:12.962Z,17.70
2023-04-17T15:32:15.283Z,17.74
